Time;durP1;ratioP1;P1;durP2;ratioP2;P2;SDS_P1;SDS_P2;PMS_P1;PMS_P2;Temp;Humidity;BMP_temperature;BMP_pressure;BME280_temperature;BME280_humidity;BME280_pressure;Samples;Min_cycle;Max_cycle;Signal;HPM_P1;HPM_P2
2021/09/08 00:02:20;;;;;;;18.92;14.00;;;;;;;;;;5054497;28;20395;-73
2021/09/08 00:04:46;;;;;;;14.25;12.85;;;;;;;;;;5054306;28;20402;-73
2021/09/08 00:07:12;;;;;;;16.80;13.57;;;;;;;;;;5054747;28;20024;-74
2021/09/08 00:09:39;;;;;;;16.33;13.43;;;;;;;;;;5054714;28;20045;-73
2021/09/08 00:12:06;;;;;;;16.92;14.20;;;;;;;;;;5054352;28;20032;-74
2021/09/08 00:14:32;;;;;;;15.68;14.05;;;;;;;;;;5054543;28;20398;-74
2021/09/08 00:16:58;;;;;;;15.95;14.35;;;;;;;;;;5055075;28;20047;-73
2021/09/08 00:19:24;;;;;;;18.15;14.70;;;;;;;;;;5054688;28;20095;-72
2021/09/08 00:21:50;;;;;;;17.65;14.50;;;;;;;;;;5052666;28;20453;-74
2021/09/08 00:24:16;;;;;;;17.38;15.63;;;;;;;;;;5053633;28;20103;-76
2021/09/08 00:26:42;;;;;;;17.60;14.48;;;;;;;;;;5053861;28;20099;-74
2021/09/08 00:29:08;;;;;;;17.50;13.88;;;;;;;;;;5053199;28;20028;-74
2021/09/08 00:31:34;;;;;;;16.30;13.50;;;;;;;;;;5053674;28;20078;-74
2021/09/08 00:34:00;;;;;;;15.95;14.25;;;;;;;;;;5053090;28;20040;-74
2021/09/08 00:36:26;;;;;;;20.00;15.45;;;;;;;;;;5053591;28;20025;-74
2021/09/08 00:38:52;;;;;;;22.20;15.98;;;;;;;;;;5049052;28;20070;-74
2021/09/08 00:41:19;;;;;;;16.80;14.95;;;;;;;;;;5049335;28;20386;-75
2021/09/08 00:43:45;;;;;;;18.38;15.43;;;;;;;;;;5048844;28;20436;-73
2021/09/08 00:46:11;;;;;;;18.83;15.63;;;;;;;;;;5051669;28;20029;-71
2021/09/08 00:48:37;;;;;;;17.63;15.48;;;;;;;;;;5052148;28;20021;-72
2021/09/08 00:51:03;;;;;;;26.00;15.63;;;;;;;;;;5051243;28;20021;-72
2021/09/08 00:53:29;;;;;;;21.73;15.20;;;;;;;;;;5054871;28;20504;-72
2021/09/08 00:55:56;;;;;;;16.88;14.40;;;;;;;;;;5054488;28;20060;-72
2021/09/08 00:58:22;;;;;;;16.92;15.13;;;;;;;;;;5054850;28;20037;-73
2021/09/08 01:00:48;;;;;;;16.67;15.05;;;;;;;;;;5055032;28;20455;-72
2021/09/08 01:03:14;;;;;;;17.55;15.85;;;;;;;;;;5054766;28;20521;-72
2021/09/08 01:05:40;;;;;;;17.52;15.38;;;;;;;;;;5054634;28;20386;-73
2021/09/08 01:08:07;;;;;;;17.08;14.07;;;;;;;;;;5053225;28;20446;-73
2021/09/08 01:10:33;;;;;;;17.55;15.68;;;;;;;;;;5051431;28;20021;-73
2021/09/08 01:12:59;;;;;;;18.33;14.80;;;;;;;;;;5054134;28;20051;-73
2021/09/08 01:15:25;;;;;;;19.55;16.40;;;;;;;;;;5052110;28;20125;-73
2021/09/08 01:17:51;;;;;;;16.58;14.55;;;;;;;;;;5052196;28;20070;-74
2021/09/08 01:20:17;;;;;;;20.77;16.10;;;;;;;;;;5050212;28;20029;-73
2021/09/08 01:22:51;;;;;;;16.48;14.43;;;;;;;;;;5051083;28;20028;-74
2021/09/08 01:25:18;;;;;;;19.80;15.63;;;;;;;;;;5052577;28;20062;-74
2021/09/08 01:27:44;;;;;;;16.80;15.07;;;;;;;;;;5052366;28;20075;-73
2021/09/08 01:30:10;;;;;;;15.55;13.77;;;;;;;;;;5054274;28;20070;-73
2021/09/08 01:32:36;;;;;;;19.35;15.85;;;;;;;;;;5054807;28;20059;-73
2021/09/08 01:35:02;;;;;;;16.98;15.23;;;;;;;;;;5054134;28;20386;-73
2021/09/08 01:37:29;;;;;;;15.55;13.93;;;;;;;;;;5054391;28;20032;-73
2021/09/08 01:39:55;;;;;;;15.27;12.98;;;;;;;;;;5053971;28;20064;-74
2021/09/08 01:42:21;;;;;;;16.25;14.68;;;;;;;;;;5054076;28;20036;-72
2021/09/08 01:44:47;;;;;;;17.83;15.07;;;;;;;;;;5054427;28;20382;-73
2021/09/08 01:47:13;;;;;;;14.85;13.30;;;;;;;;;;5053908;28;20391;-73
2021/09/08 01:49:39;;;;;;;14.65;13.18;;;;;;;;;;5053611;28;20418;-74
2021/09/08 01:52:05;;;;;;;17.98;15.82;;;;;;;;;;5053746;28;20591;-74
2021/09/08 01:54:31;;;;;;;16.00;14.27;;;;;;;;;;5053889;28;20079;-74
2021/09/08 01:56:57;;;;;;;18.10;14.93;;;;;;;;;;5054175;28;20045;-75
2021/09/08 01:59:23;;;;;;;16.10;13.70;;;;;;;;;;5053719;28;20032;-74
2021/09/08 02:01:49;;;;;;;16.25;14.63;;;;;;;;;;5053639;28;20032;-74
2021/09/08 02:04:15;;;;;;;15.38;13.77;;;;;;;;;;5053670;28;20374;-74
2021/09/08 02:06:51;;;;;;;16.40;14.68;;;;;;;;;;5054068;28;20379;-74
2021/09/08 02:09:17;;;;;;;15.75;13.18;;;;;;;;;;5053177;28;20025;-73
2021/09/08 02:11:43;;;;;;;14.73;13.23;;;;;;;;;;5053439;28;20490;-73
2021/09/08 02:14:09;;;;;;;16.02;14.35;;;;;;;;;;5053426;28;20044;-74
2021/09/08 02:16:35;;;;;;;14.88;13.38;;;;;;;;;;5052248;28;20021;-75
2021/09/08 02:19:01;;;;;;;14.15;12.85;;;;;;;;;;5050581;28;20025;-72
2021/09/08 02:21:27;;;;;;;14.60;13.20;;;;;;;;;;5053468;28;20033;-71
2021/09/08 02:23:54;;;;;;;17.58;13.25;;;;;;;;;;5052925;28;20025;-72
2021/09/08 02:26:20;;;;;;;14.57;13.10;;;;;;;;;;5052978;28;20462;-72
2021/09/08 02:28:46;;;;;;;13.38;12.07;;;;;;;;;;5052758;28;20033;-74
2021/09/08 02:31:12;;;;;;;16.10;14.00;;;;;;;;;;5053267;28;20028;-75
2021/09/08 02:33:38;;;;;;;15.75;12.77;;;;;;;;;;5050045;28;20394;-75
2021/09/08 02:36:04;;;;;;;17.65;13.65;;;;;;;;;;5048932;28;20029;-74
2021/09/08 02:38:31;;;;;;;13.25;11.90;;;;;;;;;;5048071;28;20033;-74
2021/09/08 02:40:59;;;;;;;14.52;13.13;;;;;;;;;;5051256;28;20040;-74
2021/09/08 02:43:26;;;;;;;13.70;12.38;;;;;;;;;;5053322;28;20025;-74
2021/09/08 02:45:52;;;;;;;12.88;11.50;;;;;;;;;;5053081;28;20032;-74
2021/09/08 02:48:18;;;;;;;13.48;11.88;;;;;;;;;;5053542;28;20025;-74
2021/09/08 02:50:44;;;;;;;13.40;12.00;;;;;;;;;;5053577;28;20068;-74
2021/09/08 02:53:10;;;;;;;12.60;11.32;;;;;;;;;;5052786;28;20029;-74
2021/09/08 02:55:36;;;;;;;14.20;12.82;;;;;;;;;;5052970;28;20049;-74
2021/09/08 02:58:02;;;;;;;13.02;11.82;;;;;;;;;;5053254;28;20402;-73
2021/09/08 03:00:28;;;;;;;14.00;12.57;;;;;;;;;;5053725;28;20033;-74
2021/09/08 03:02:54;;;;;;;12.40;11.23;;;;;;;;;;5053086;28;20497;-74
2021/09/08 03:05:20;;;;;;;13.38;11.98;;;;;;;;;;5052921;28;20099;-74
2021/09/08 03:07:46;;;;;;;13.50;12.15;;;;;;;;;;5052527;28;20116;-74
2021/09/08 03:10:12;;;;;;;12.32;11.07;;;;;;;;;;5053125;28;20055;-74
2021/09/08 03:12:38;;;;;;;14.30;12.90;;;;;;;;;;5053104;28;20021;-74
2021/09/08 03:15:05;;;;;;;12.85;11.60;;;;;;;;;;5052762;28;20120;-74
2021/09/08 03:17:31;;;;;;;13.05;11.88;;;;;;;;;;5053080;28;20029;-74
2021/09/08 03:19:57;;;;;;;12.30;11.10;;;;;;;;;;5052848;28;20112;-74
2021/09/08 03:22:23;;;;;;;12.85;11.05;;;;;;;;;;5052980;28;20462;-75
2021/09/08 03:24:49;;;;;;;13.50;12.20;;;;;;;;;;5053063;28;20033;-75
2021/09/08 03:27:15;;;;;;;12.07;10.60;;;;;;;;;;5052958;28;20025;-74
2021/09/08 03:29:41;;;;;;;13.45;12.15;;;;;;;;;;5052757;28;20036;-74
2021/09/08 03:32:07;;;;;;;12.43;11.23;;;;;;;;;;5052977;28;20486;-74
2021/09/08 03:34:34;;;;;;;16.48;11.90;;;;;;;;;;5052586;28;20033;-74
2021/09/08 03:37:00;;;;;;;11.77;10.68;;;;;;;;;;5052741;28;20107;-74
2021/09/08 03:39:26;;;;;;;12.90;11.70;;;;;;;;;;5054998;28;20025;-74
2021/09/08 03:41:52;;;;;;;12.18;10.60;;;;;;;;;;5056264;28;20466;-74
2021/09/08 03:44:18;;;;;;;12.32;11.23;;;;;;;;;;5056416;28;20025;-74
2021/09/08 03:46:44;;;;;;;10.88;9.80;;;;;;;;;;5056267;28;20029;-74
2021/09/08 03:49:10;;;;;;;11.82;10.73;;;;;;;;;;5056297;28;20032;-74
2021/09/08 03:51:36;;;;;;;10.45;9.23;;;;;;;;;;5056203;28;20028;-74
2021/09/08 03:54:02;;;;;;;11.30;10.18;;;;;;;;;;5056048;28;20200;-74
2021/09/08 03:56:28;;;;;;;11.10;10.10;;;;;;;;;;5056139;28;20060;-74
2021/09/08 03:58:54;;;;;;;11.20;10.05;;;;;;;;;;5055997;28;20021;-75
2021/09/08 04:01:20;;;;;;;13.48;11.25;;;;;;;;;;5055795;28;20100;-74
2021/09/08 04:03:47;;;;;;;11.43;10.23;;;;;;;;;;5055782;28;20033;-74
2021/09/08 04:06:13;;;;;;;11.70;10.50;;;;;;;;;;5056025;28;20025;-74
2021/09/08 04:08:39;;;;;;;10.27;9.30;;;;;;;;;;5055530;28;20021;-73
2021/09/08 04:11:05;;;;;;;11.23;10.20;;;;;;;;;;5056291;28;20035;-74
2021/09/08 04:13:31;;;;;;;11.98;10.77;;;;;;;;;;5055885;28;20060;-74
2021/09/08 04:15:57;;;;;;;12.30;10.32;;;;;;;;;;5055565;28;20051;-74
2021/09/08 04:18:24;;;;;;;10.95;9.95;;;;;;;;;;5055667;28;20041;-74
2021/09/08 04:20:50;;;;;;;9.57;8.65;;;;;;;;;;5055708;28;20071;-74
2021/09/08 04:23:16;;;;;;;11.18;9.95;;;;;;;;;;5055549;28;20078;-74
2021/09/08 04:25:42;;;;;;;42.35;10.63;;;;;;;;;;5055307;28;20386;-74
2021/09/08 04:28:08;;;;;;;10.95;9.90;;;;;;;;;;5055708;28;20029;-74
2021/09/08 04:30:34;;;;;;;10.80;9.65;;;;;;;;;;5055686;28;20032;-74
2021/09/08 04:33:00;;;;;;;11.40;10.40;;;;;;;;;;5055503;28;20474;-74
2021/09/08 04:35:26;;;;;;;15.48;11.10;;;;;;;;;;5055539;28;20439;-72
2021/09/08 04:37:52;;;;;;;11.55;10.27;;;;;;;;;;5055078;28;20021;-74
2021/09/08 04:40:18;;;;;;;17.10;10.02;;;;;;;;;;5055661;28;20490;-74
2021/09/08 04:42:44;;;;;;;10.02;8.82;;;;;;;;;;5054877;28;20119;-76
2021/09/08 04:45:10;;;;;;;11.15;9.30;;;;;;;;;;5055501;28;20036;-73
2021/09/08 04:47:37;;;;;;;9.23;8.27;;;;;;;;;;5052491;28;20021;-74
2021/09/08 04:50:03;;;;;;;9.52;8.48;;;;;;;;;;5053999;28;20021;-74
2021/09/08 04:52:30;;;;;;;12.82;9.40;;;;;;;;;;5054177;28;20029;-74
2021/09/08 04:54:57;;;;;;;17.83;9.70;;;;;;;;;;5054143;28;20494;-74
2021/09/08 04:57:23;;;;;;;9.52;8.63;;;;;;;;;;5053798;28;20032;-74
2021/09/08 04:59:49;;;;;;;10.02;9.02;;;;;;;;;;5054029;28;20390;-75
2021/09/08 05:02:15;;;;;;;10.98;9.20;;;;;;;;;;5053738;28;20390;-75
2021/09/08 05:04:41;;;;;;;9.63;8.73;;;;;;;;;;5052360;28;20492;-77
2021/09/08 05:07:07;;;;;;;11.57;9.82;;;;;;;;;;5054440;28;20037;-75
2021/09/08 05:09:33;;;;;;;10.85;7.85;;;;;;;;;;5052706;28;20029;-76
2021/09/08 05:11:59;;;;;;;10.02;8.75;;;;;;;;;;5052787;28;20552;-76
2021/09/08 05:14:25;;;;;;;10.52;9.40;;;;;;;;;;5051863;28;20110;-76
2021/09/08 05:16:51;;;;;;;12.52;8.60;;;;;;;;;;5054342;28;20029;-74
2021/09/08 05:19:17;;;;;;;11.52;8.70;;;;;;;;;;5054142;28;20087;-75
2021/09/08 05:21:43;;;;;;;13.00;8.75;;;;;;;;;;5053932;28;20079;-75
2021/09/08 05:24:10;;;;;;;14.15;9.43;;;;;;;;;;5054636;28;20104;-75
2021/09/08 05:26:36;;;;;;;8.85;8.05;;;;;;;;;;5054833;28;20419;-74
2021/09/08 05:29:02;;;;;;;11.70;8.30;;;;;;;;;;5054252;28;20021;-75
2021/09/08 05:31:28;;;;;;;10.38;8.32;;;;;;;;;;5054214;28;20029;-75
2021/09/08 05:33:54;;;;;;;16.25;7.15;;;;;;;;;;5053162;28;20028;-73
2021/09/08 05:36:20;;;;;;;9.43;7.30;;;;;;;;;;5052679;28;20028;-74
2021/09/08 05:38:46;;;;;;;17.63;8.98;;;;;;;;;;5053372;28;20055;-74
2021/09/08 05:41:12;;;;;;;11.48;7.95;;;;;;;;;;5051392;28;20021;-73
2021/09/08 05:43:38;;;;;;;9.02;7.78;;;;;;;;;;5053469;28;20556;-74
2021/09/08 05:46:04;;;;;;;8.00;7.18;;;;;;;;;;5053826;28;20465;-73
2021/09/08 05:48:33;;;;;;;8.75;7.97;;;;;;;;;;5053098;28;20104;-73
2021/09/08 05:50:59;;;;;;;15.20;7.85;;;;;;;;;;5053666;28;20029;-73
2021/09/08 05:53:25;;;;;;;27.30;8.73;;;;;;;;;;5053755;28;20059;-73
2021/09/08 05:55:53;;;;;;;8.65;7.80;;;;;;;;;;5053338;28;20049;-73
2021/09/08 05:58:19;;;;;;;10.60;8.60;;;;;;;;;;5053550;28;20025;-73
2021/09/08 06:00:45;;;;;;;8.32;6.85;;;;;;;;;;5054119;28;20027;-73
2021/09/08 06:03:12;;;;;;;8.30;6.35;;;;;;;;;;5053277;28;20025;-73
2021/09/08 06:05:38;;;;;;;13.35;9.10;;;;;;;;;;5053136;28;20025;-73
2021/09/08 06:08:04;;;;;;;7.85;7.13;;;;;;;;;;5053960;28;20025;-73
2021/09/08 06:10:30;;;;;;;8.63;6.97;;;;;;;;;;5053802;28;20351;-73
2021/09/08 06:12:56;;;;;;;7.22;6.60;;;;;;;;;;5053965;28;20028;-73
2021/09/08 06:15:23;;;;;;;10.82;7.57;;;;;;;;;;5053092;28;20502;-73
2021/09/08 06:17:49;;;;;;;8.65;7.25;;;;;;;;;;5053370;28;20104;-73
2021/09/08 06:20:15;;;;;;;9.48;6.85;;;;;;;;;;5053157;28;20560;-74
2021/09/08 06:22:41;;;;;;;11.10;7.18;;;;;;;;;;5053562;28;20112;-72
2021/09/08 06:25:08;;;;;;;9.32;6.95;;;;;;;;;;5053417;28;20029;-73
2021/09/08 06:27:34;;;;;;;7.68;6.97;;;;;;;;;;5053424;28;20032;-73
2021/09/08 06:30:00;;;;;;;10.00;7.80;;;;;;;;;;5053073;28;20017;-73
2021/09/08 06:32:26;;;;;;;7.95;7.25;;;;;;;;;;5053342;28;20024;-73
2021/09/08 06:34:53;;;;;;;7.15;6.40;;;;;;;;;;5052892;28;20035;-73
2021/09/08 06:37:19;;;;;;;7.15;6.03;;;;;;;;;;5053112;28;20025;-73
2021/09/08 06:39:45;;;;;;;8.00;7.20;;;;;;;;;;5053287;28;20030;-73
2021/09/08 06:42:11;;;;;;;9.02;6.35;;;;;;;;;;5053680;28;20040;-73
2021/09/08 06:44:37;;;;;;;7.45;6.35;;;;;;;;;;5053107;28;20036;-73
2021/09/08 06:47:03;;;;;;;8.88;6.70;;;;;;;;;;5052896;28;20033;-72
2021/09/08 06:49:29;;;;;;;7.38;6.55;;;;;;;;;;5052707;28;20369;-72
2021/09/08 06:51:55;;;;;;;7.47;6.65;;;;;;;;;;5053045;28;20377;-72
2021/09/08 06:54:21;;;;;;;7.43;6.70;;;;;;;;;;5052997;28;20105;-71
2021/09/08 06:56:47;;;;;;;8.80;5.55;;;;;;;;;;5053461;28;20051;-71
2021/09/08 06:59:13;;;;;;;7.35;6.45;;;;;;;;;;5052823;28;20493;-72
2021/09/08 07:01:39;;;;;;;7.80;6.30;;;;;;;;;;5053024;28;20378;-72
2021/09/08 07:04:05;;;;;;;7.72;6.90;;;;;;;;;;5052523;28;20335;-72
2021/09/08 07:06:32;;;;;;;7.95;7.15;;;;;;;;;;5052647;28;20025;-73
2021/09/08 07:08:58;;;;;;;8.02;7.25;;;;;;;;;;5052667;28;20025;-72
2021/09/08 07:11:24;;;;;;;6.80;6.13;;;;;;;;;;5052859;28;20079;-72
2021/09/08 07:13:50;;;;;;;5.90;5.30;;;;;;;;;;5053892;28;20033;-73
2021/09/08 07:16:16;;;;;;;6.68;6.07;;;;;;;;;;5056893;28;20021;-72
2021/09/08 07:18:42;;;;;;;8.77;6.07;;;;;;;;;;5056572;28;20021;-74
2021/09/08 07:21:08;;;;;;;7.90;6.10;;;;;;;;;;5056770;28;20104;-75
2021/09/08 07:23:34;;;;;;;6.43;5.88;;;;;;;;;;5056936;28;20379;-75
2021/09/08 07:26:00;;;;;;;6.35;5.85;;;;;;;;;;5056729;28;20060;-75
2021/09/08 07:28:26;;;;;;;7.20;6.47;;;;;;;;;;5056512;28;20032;-72
2021/09/08 07:30:53;;;;;;;7.35;6.45;;;;;;;;;;5056439;28;20088;-72
2021/09/08 07:33:20;;;;;;;8.10;7.30;;;;;;;;;;5056379;28;20036;-73
2021/09/08 07:35:48;;;;;;;6.60;6.00;;;;;;;;;;5056126;28;20028;-72
2021/09/08 07:38:14;;;;;;;11.02;6.15;;;;;;;;;;5057005;28;20031;-74
2021/09/08 07:40:40;;;;;;;8.65;7.18;;;;;;;;;;5056756;28;20027;-75
2021/09/08 07:43:06;;;;;;;9.38;7.25;;;;;;;;;;5056416;28;20021;-74
2021/09/08 07:45:32;;;;;;;7.32;6.43;;;;;;;;;;5056847;28;20024;-74
2021/09/08 07:47:58;;;;;;;9.18;7.22;;;;;;;;;;5055892;28;20021;-76
2021/09/08 07:50:25;;;;;;;6.88;6.18;;;;;;;;;;5056501;28;20033;-74
2021/09/08 07:52:51;;;;;;;7.40;6.75;;;;;;;;;;5056481;28;20100;-74
2021/09/08 07:55:17;;;;;;;9.85;6.45;;;;;;;;;;5056103;28;20049;-75
2021/09/08 07:57:43;;;;;;;7.45;6.30;;;;;;;;;;5056281;28;20103;-75
2021/09/08 08:00:09;;;;;;;7.10;6.45;;;;;;;;;;5056494;28;20025;-75
2021/09/08 08:02:44;;;;;;;7.15;6.45;;;;;;;;;;5056146;28;20078;-75
2021/09/08 08:05:10;;;;;;;9.82;7.88;;;;;;;;;;5056384;28;20029;-73
2021/09/08 08:07:36;;;;;;;12.32;8.20;;;;;;;;;;5055914;28;20025;-73
2021/09/08 08:10:03;;;;;;;11.55;10.10;;;;;;;;;;5056131;28;20029;-72
2021/09/08 08:12:29;;;;;;;16.40;11.02;;;;;;;;;;5055871;28;20029;-73
2021/09/08 08:14:55;;;;;;;13.73;9.98;;;;;;;;;;5055469;28;20073;-72
2021/09/08 08:17:21;;;;;;;11.35;9.07;;;;;;;;;;5055460;28;20471;-73
2021/09/08 08:19:48;;;;;;;10.32;9.32;;;;;;;;;;5055148;28;20504;-73
2021/09/08 08:22:15;;;;;;;11.70;7.93;;;;;;;;;;5056415;28;20021;-75
2021/09/08 08:24:41;;;;;;;11.75;10.50;;;;;;;;;;5054800;28;20025;-75
2021/09/08 08:27:08;;;;;;;10.57;9.55;;;;;;;;;;5055179;28;20540;-74
2021/09/08 08:29:34;;;;;;;10.60;9.13;;;;;;;;;;5055625;28;20071;-74
2021/09/08 08:32:00;;;;;;;10.35;9.45;;;;;;;;;;5055003;28;20497;-75
2021/09/08 08:34:26;;;;;;;12.48;8.63;;;;;;;;;;5055418;28;20060;-74
2021/09/08 08:36:52;;;;;;;11.07;9.55;;;;;;;;;;5055588;28;20033;-74
2021/09/08 08:39:18;;;;;;;12.00;10.45;;;;;;;;;;5055305;28;20041;-74
2021/09/08 08:41:44;;;;;;;13.38;9.27;;;;;;;;;;5055081;28;20025;-75
2021/09/08 08:44:10;;;;;;;10.65;9.60;;;;;;;;;;5055619;28;20063;-74
2021/09/08 08:46:36;;;;;;;10.63;9.50;;;;;;;;;;5055187;28;20026;-75
2021/09/08 08:49:02;;;;;;;10.50;8.40;;;;;;;;;;5055143;28;20139;-73
2021/09/08 08:51:28;;;;;;;16.00;9.20;;;;;;;;;;5055212;28;20374;-74
2021/09/08 08:53:54;;;;;;;11.30;7.85;;;;;;;;;;5054821;28;20025;-73
2021/09/08 08:56:21;;;;;;;16.65;9.05;;;;;;;;;;5055069;28;20132;-74
2021/09/08 08:58:47;;;;;;;10.07;8.48;;;;;;;;;;5054894;28;20033;-72
2021/09/08 09:01:14;;;;;;;8.73;7.93;;;;;;;;;;5054590;28;20424;-73
2021/09/08 09:03:40;;;;;;;9.40;8.45;;;;;;;;;;5054669;28;20059;-72
2021/09/08 09:06:06;;;;;;;10.15;7.80;;;;;;;;;;5055131;28;20397;-72
2021/09/08 09:08:34;;;;;;;10.82;9.35;;;;;;;;;;5054783;28;20028;-73
2021/09/08 09:11:00;;;;;;;10.27;8.85;;;;;;;;;;5054758;28;20108;-72
2021/09/08 09:13:34;;;;;;;11.70;9.45;;;;;;;;;;5054678;28;20075;-73
2021/09/08 09:16:07;;;;;;;10.55;8.48;;;;;;;;;;5054964;28;20111;-73
2021/09/08 09:18:37;;;;;;;13.70;8.15;;;;;;;;;;5055341;28;20025;-72
2021/09/08 09:21:07;;;;;;;16.67;9.10;;;;;;;;;;5055693;28;20112;-72
2021/09/08 09:23:41;;;;;;;10.48;8.48;;;;;;;;;;5055278;28;20117;-72
2021/09/08 09:26:07;;;;;;;14.95;8.05;;;;;;;;;;5055142;28;20462;-73
2021/09/08 09:28:33;;;;;;;14.90;9.15;;;;;;;;;;5054834;28;20510;-72
2021/09/08 09:30:59;;;;;;;9.68;8.52;;;;;;;;;;5055370;28;20029;-72
2021/09/08 09:33:27;;;;;;;18.10;16.27;;;;;;;;;;5055102;28;20029;-72
2021/09/08 09:35:53;;;;;;;18.98;16.98;;;;;;;;;;5054424;28;20570;-72
2021/09/08 09:38:20;;;;;;;16.42;14.70;;;;;;;;;;5054742;28;20118;-72
2021/09/08 09:40:46;;;;;;;18.63;14.82;;;;;;;;;;5054800;28;20486;-73
2021/09/08 09:43:12;;;;;;;28.63;23.58;;;;;;;;;;5054777;28;20382;-73
2021/09/08 09:45:38;;;;;;;13.32;11.85;;;;;;;;;;5054670;28;20057;-73
2021/09/08 09:48:05;;;;;;;15.07;12.75;;;;;;;;;;5054664;28;20084;-73
2021/09/08 09:50:31;;;;;;;19.05;13.30;;;;;;;;;;5054896;28;20056;-73
2021/09/08 09:52:57;;;;;;;35.40;17.67;;;;;;;;;;5054477;28;20029;-73
2021/09/08 09:55:23;;;;;;;28.40;12.93;;;;;;;;;;5054356;28;20080;-73
2021/09/08 09:57:49;;;;;;;25.73;15.55;;;;;;;;;;5054186;28;20025;-73
2021/09/08 10:00:16;;;;;;;26.80;12.57;;;;;;;;;;5055211;28;20037;-73
2021/09/08 10:02:42;;;;;;;31.35;16.08;;;;;;;;;;5054632;28;20115;-73
2021/09/08 10:05:08;;;;;;;26.90;14.38;;;;;;;;;;5054681;28;20029;-73
2021/09/08 10:07:35;;;;;;;28.45;13.85;;;;;;;;;;5054207;28;20047;-72
2021/09/08 10:10:03;;;;;;;22.48;10.93;;;;;;;;;;5054299;28;20028;-73
2021/09/08 10:12:33;;;;;;;30.23;12.82;;;;;;;;;;5053612;28;20032;-73
2021/09/08 10:15:00;;;;;;;20.48;11.05;;;;;;;;;;5054466;28;20068;-73
2021/09/08 10:17:26;;;;;;;16.42;8.05;;;;;;;;;;5054084;28;20532;-72
2021/09/08 10:20:08;;;;;;;18.42;9.23;;;;;;;;;;5054049;28;20422;-73
2021/09/08 10:22:37;;;;;;;12.95;9.48;;;;;;;;;;5054385;28;20025;-75
2021/09/08 10:25:11;;;;;;;13.38;8.02;;;;;;;;;;5054087;28;20025;-72
2021/09/08 10:27:37;;;;;;;13.15;7.75;;;;;;;;;;5054009;28;20017;-72
2021/09/08 10:30:04;;;;;;;11.63;7.38;;;;;;;;;;5054599;28;20033;-76
2021/09/08 10:32:30;;;;;;;10.25;5.90;;;;;;;;;;5054480;28;20082;-76
2021/09/08 10:34:56;;;;;;;12.02;6.70;;;;;;;;;;5054030;28;20061;-76
2021/09/08 10:37:23;;;;;;;8.10;6.00;;;;;;;;;;5054027;28;20071;-76
2021/09/08 10:39:49;;;;;;;9.00;6.68;;;;;;;;;;5054076;28;20351;-76
2021/09/08 10:42:15;;;;;;;6.47;5.88;;;;;;;;;;5054098;28;20036;-76
2021/09/08 10:44:45;;;;;;;8.63;6.47;;;;;;;;;;5053756;28;20025;-76
2021/09/08 10:47:12;;;;;;;13.60;7.38;;;;;;;;;;5053587;28;20492;-76
2021/09/08 10:49:58;;;;;;;8.02;7.03;;;;;;;;;;5056679;28;20025;-76
2021/09/08 10:52:40;;;;;;;10.93;6.90;;;;;;;;;;5043683;28;20044;-76
2021/09/08 10:55:10;;;;;;;7.32;6.63;;;;;;;;;;5058070;28;20084;-75
2021/09/08 10:57:58;;;;;;;8.52;6.38;;;;;;;;;;5058174;28;20029;-76
2021/09/08 11:00:27;;;;;;;7.43;6.70;;;;;;;;;;5043400;28;20025;-76
2021/09/08 11:02:53;;;;;;;8.73;7.00;;;;;;;;;;5057849;28;20021;-74
2021/09/08 11:05:19;;;;;;;8.57;6.22;;;;;;;;;;5057953;28;20032;-74
2021/09/08 11:07:47;;;;;;;8.38;7.57;;;;;;;;;;5057245;28;20032;-75
2021/09/08 11:10:13;;;;;;;7.20;6.10;;;;;;;;;;5057851;28;20024;-75
2021/09/08 11:12:55;;;;;;;7.50;6.50;;;;;;;;;;5057430;28;20032;-74
2021/09/08 11:15:37;;;;;;;12.07;6.55;;;;;;;;;;5057936;28;20036;-75
2021/09/08 11:18:04;;;;;;;7.30;6.57;;;;;;;;;;5057968;28;20029;-75
2021/09/08 11:20:30;;;;;;;8.60;6.70;;;;;;;;;;5057776;28;20406;-75
2021/09/08 11:23:00;;;;;;;7.53;6.82;;;;;;;;;;5057291;28;20032;-75
2021/09/08 11:25:29;;;;;;;7.05;5.88;;;;;;;;;;5057100;28;20478;-74
2021/09/08 11:27:55;;;;;;;8.55;7.28;;;;;;;;;;5057400;28;20048;-74
2021/09/08 11:30:21;;;;;;;8.10;6.65;;;;;;;;;;5057683;28;20379;-74
2021/09/08 11:33:03;;;;;;;6.90;6.13;;;;;;;;;;5057464;28;20116;-74
2021/09/08 11:35:49;;;;;;;11.95;6.57;;;;;;;;;;5057404;28;20356;-76
2021/09/08 11:38:18;;;;;;;8.75;6.35;;;;;;;;;;5042521;28;20048;-75
2021/09/08 11:40:45;;;;;;;8.95;6.65;;;;;;;;;;5057025;28;20386;-76
2021/09/08 11:43:11;;;;;;;6.70;6.10;;;;;;;;;;5056758;28;20463;-76
2021/09/08 11:45:37;;;;;;;7.22;6.53;;;;;;;;;;5056995;28;20378;-76
2021/09/08 11:48:03;;;;;;;8.88;6.55;;;;;;;;;;5057198;28;20032;-76
2021/09/08 11:50:29;;;;;;;7.28;6.57;;;;;;;;;;5056936;28;20029;-76
2021/09/08 11:52:56;;;;;;;7.53;6.88;;;;;;;;;;5056986;28;20036;-76
2021/09/08 11:55:24;;;;;;;8.15;6.55;;;;;;;;;;5056804;28;20128;-75
2021/09/08 11:57:50;;;;;;;12.88;6.47;;;;;;;;;;5056650;28;20379;-76
2021/09/08 12:00:16;;;;;;;9.02;6.28;;;;;;;;;;5056760;28;20123;-76
2021/09/08 12:02:42;;;;;;;7.10;6.47;;;;;;;;;;5056854;28;20031;-76
2021/09/08 12:05:17;;;;;;;8.70;6.93;;;;;;;;;;5056556;28;20037;-76
2021/09/08 12:07:43;;;;;;;9.43;5.82;;;;;;;;;;5056680;28;20071;-76
2021/09/08 12:10:10;;;;;;;6.30;5.70;;;;;;;;;;5057277;28;20031;-76
2021/09/08 12:12:36;;;;;;;7.65;6.93;;;;;;;;;;5056354;28;20025;-76
2021/09/08 12:15:02;;;;;;;6.53;5.95;;;;;;;;;;5056784;28;20063;-76
2021/09/08 12:17:28;;;;;;;7.15;6.45;;;;;;;;;;5056288;28;20025;-76
2021/09/08 12:19:56;;;;;;;7.25;6.18;;;;;;;;;;5055912;28;20021;-76
2021/09/08 12:22:23;;;;;;;6.63;5.85;;;;;;;;;;5056689;28;20053;-76
2021/09/08 12:24:52;;;;;;;7.18;6.32;;;;;;;;;;5056630;28;20025;-75
2021/09/08 12:27:28;;;;;;;10.55;6.43;;;;;;;;;;5056300;28;20060;-76
2021/09/08 12:29:55;;;;;;;6.30;5.70;;;;;;;;;;5055947;28;20025;-76
2021/09/08 12:32:21;;;;;;;8.32;6.40;;;;;;;;;;5055688;28;20509;-76
2021/09/08 12:34:48;;;;;;;10.38;5.55;;;;;;;;;;5056079;28;20127;-75
2021/09/08 12:37:15;;;;;;;29.00;7.05;;;;;;;;;;5059891;28;20051;-77
2021/09/08 12:39:42;;;;;;;11.75;7.25;;;;;;;;;;5075771;28;20109;-76
2021/09/08 12:42:08;;;;;;;9.90;6.60;;;;;;;;;;5076331;28;20032;-76
2021/09/08 12:44:35;;;;;;;12.65;7.53;;;;;;;;;;5068567;28;20033;-76
2021/09/08 12:47:21;;;;;;;9.25;6.72;;;;;;;;;;5055819;28;20374;-76
2021/09/08 12:49:47;;;;;;;7.32;6.15;;;;;;;;;;5041625;28;20021;-78
2021/09/08 12:52:15;;;;;;;11.23;6.90;;;;;;;;;;5056206;28;20025;-77
2021/09/08 12:54:41;;;;;;;7.53;6.72;;;;;;;;;;5054387;28;20025;-77
2021/09/08 12:57:07;;;;;;;31.80;7.40;;;;;;;;;;5055901;28;20045;-77
2021/09/08 12:59:34;;;;;;;7.68;6.88;;;;;;;;;;5055817;28;20017;-77
2021/09/08 13:02:00;;;;;;;10.27;6.20;;;;;;;;;;5055880;28;20029;-75
2021/09/08 13:04:26;;;;;;;8.70;7.40;;;;;;;;;;5054400;28;20029;-77
2021/09/08 13:06:53;;;;;;;13.88;8.43;;;;;;;;;;5056175;28;20039;-76
2021/09/08 13:09:19;;;;;;;8.00;6.55;;;;;;;;;;5055809;28;20025;-77
2021/09/08 13:11:45;;;;;;;7.88;6.95;;;;;;;;;;5055088;28;20054;-77
2021/09/08 13:14:11;;;;;;;9.73;7.25;;;;;;;;;;5054384;28;20588;-77
2021/09/08 13:16:37;;;;;;;19.65;7.35;;;;;;;;;;5055294;28;20433;-76
2021/09/08 13:19:04;;;;;;;8.02;6.60;;;;;;;;;;5055965;28;20021;-78
2021/09/08 13:21:31;;;;;;;10.88;6.72;;;;;;;;;;5055344;28;20155;-76
2021/09/08 13:23:57;;;;;;;43.55;6.57;;;;;;;;;;5053177;28;20039;-78
2021/09/08 13:26:24;;;;;;;8.70;7.28;;;;;;;;;;5055744;28;20021;-77
2021/09/08 13:28:51;;;;;;;8.88;6.97;;;;;;;;;;5055460;28;20025;-77
2021/09/08 13:31:17;;;;;;;8.45;7.15;;;;;;;;;;5055647;28;20064;-76
2021/09/08 13:33:43;;;;;;;10.93;6.65;;;;;;;;;;5055294;28;20033;-76
2021/09/08 13:36:09;;;;;;;9.00;7.47;;;;;;;;;;5053572;28;20025;-77
2021/09/08 13:38:35;;;;;;;10.82;6.15;;;;;;;;;;5055047;28;20044;-81
2021/09/08 13:41:02;;;;;;;7.00;6.30;;;;;;;;;;5055586;28;20024;-80
2021/09/08 13:43:28;;;;;;;14.48;6.80;;;;;;;;;;5055035;28;20028;-76
2021/09/08 13:45:54;;;;;;;11.07;6.35;;;;;;;;;;5053597;28;20029;-76
2021/09/08 13:48:21;;;;;;;10.90;6.63;;;;;;;;;;5055130;28;20520;-74
2021/09/08 13:50:47;;;;;;;7.18;6.00;;;;;;;;;;5055240;28;20039;-77
2021/09/08 13:53:13;;;;;;;6.90;6.22;;;;;;;;;;5054542;28;20467;-77
2021/09/08 13:55:39;;;;;;;13.63;6.78;;;;;;;;;;5052799;28;20135;-75
2021/09/08 13:58:06;;;;;;;19.15;7.13;;;;;;;;;;5053742;28;20047;-76
2021/09/08 14:00:33;;;;;;;9.77;6.07;;;;;;;;;;5054278;28;20498;-75
2021/09/08 14:02:59;;;;;;;5.80;5.30;;;;;;;;;;5054304;28;20036;-74
2021/09/08 14:05:25;;;;;;;11.80;6.40;;;;;;;;;;5052243;28;20482;-77
2021/09/08 14:07:51;;;;;;;17.38;7.40;;;;;;;;;;5053888;28;20379;-76
2021/09/08 14:10:17;;;;;;;16.20;6.57;;;;;;;;;;5053827;28;20437;-76
2021/09/08 14:12:43;;;;;;;7.90;7.00;;;;;;;;;;5053442;28;20020;-76
2021/09/08 14:15:12;;;;;;;7.13;6.43;;;;;;;;;;5052045;28;20475;-76
2021/09/08 14:17:38;;;;;;;13.02;6.93;;;;;;;;;;5053749;28;20103;-76
2021/09/08 14:20:05;;;;;;;11.90;8.05;;;;;;;;;;5053936;28;20029;-77
2021/09/08 14:22:31;;;;;;;10.50;6.25;;;;;;;;;;5053442;28;20025;-76
2021/09/08 14:24:59;;;;;;;19.35;7.45;;;;;;;;;;5043074;28;20030;-76
2021/09/08 14:27:25;;;;;;;9.63;6.10;;;;;;;;;;5033431;28;20021;-77
2021/09/08 14:29:52;;;;;;;6.60;6.00;;;;;;;;;;5033754;28;20021;-76